Pagrindinis puslapis
METAR-TAF:

METAR-TAF

Oro uostai :

Kočabamba, Bolivija

platuma: 17-25S, ilguma: 066-11W, Aukštis: 2548 m

Dabartinis oras

Ataskaita buvo paskelbta 31 minutes, ne 01:00 UTC
Vėjas 6 kt iš Rytų/Pietryčių
Temperatūra 16°C
Drėgmė 42%
Slėgis 1023 hPa
Matomumas 10 km arba daugiau

METAR: SLCB 170100Z 11006KT 9999 NSC 16/03 Q1023

Laikas: 21:31 (01:31 UTC)

Prognozė

Ataskaita buvo paskelbta 3 valandos ir 31 minutes, ne 22:00 UTC
Prognozė galioja nuo 17 metu 00 UTC su 17 metu 24 UTC
Vėjas kt iš Šiaurės
Matomumas 10 km arba daugiau
Tapsmas
nuo 17 metu 16 UTC su 17 metu 18 UTC
Vėjas 10 kt iš Vakarų/Pietvakarių
Mažai debesys ne aukštis 3600 ft

TAF: SLCB 162200Z 1700/1724 00000KT 9999 NSC TX25/1719Z TN03/1710Z BECMG 1716/1718 24010KT FEW036

Orai ataskaitas ir orų prognozės (METAR, TAF).

turimą stotys yra geltonos ir raudonos taškus žemėlapyje.

Perkelti pele per norėdami pamatyti stoties vardą.

Tada spustelėkite, norėdami matyti oro stebėjimo ir prognozės.

Norėdami pakeisti žemėlapį: spustelėkite ant žalios mygtukų su juodo kryžiaus žemyn,; žalią mygtuką su brūkšneliu, jei norite nutolinti; arba žalių rodyklių gretimoms žemėlapius.


METAR-TAF: